Tiempo atmosférico en la estación meteorológica de Puebla De Obando, Badajoz (392 m.)



Fecha
DESCASC
Temp. máxima en grados centígrados (hora)
DESCASC
Temp. mínima en grados centígrados (hora)
DESCASC
Temp. media en grados centígrados
DESCASC
Racha de viento máxima en m/sg (hora)
DESCASC
Velocidad máxima media en intervalos de 10 minutos(hora)
DESCASC
Precipitaciones diarias en mm
DESCASC
Precipitaciones de 00:00 a 06:00 en mm
DESCASC
Precipitaciones de 06:00 a 12:00 en mm
DESCASC
Precipitaciones de 12:00 a 18:00 en mm
DESCASC
Precipitaciones de 18:00 a 24:00 en mm
DESCASC
22-04-2019 21.3 (16:10) 7.3 (07:40) 14.3 11.67 (17:10) 7.5 (18:10) 0 0 0 0 0
21-04-2019 20.1 (17:20) 8.5 (07:50) 14.3 10 (15:40) 5.56 (14:20) 0 0 0 0 0
20-04-2019 22.1 (17:50) 9.7 (05:10) 15.9 13.06 (15:10) 7.5 (13:10) 0.4 0.2 0.2 0 0
19-04-2019 17 (16:40) 7.2 (07:00) 12.1 9.17 (20:50) 5.83 (20:40) 0.6 0 0.4 0 0.2
18-04-2019 17.9 (17:00) 9.2 (00:00) 13.5 10 (20:30) 6.11 (20:30) 14.8 0 0.4 0 14.4
17-04-2019 20.2 (15:10) 9.2 (00:00) 14.7 15.28 (14:30) 9.17 (15:20) 5.2 0 0 2.8 2.4
16-04-2019 23.2 (18:30) 3.8 (00:00) 13.5 10 (15:50) 5.83 (17:30) 0 0 0 0 0
15-04-2019 20.3 (14:30) 11.2 (00:00) 15.7 13.06 (17:40) 8.89 (15:10) 0 0 0 0 0
14-04-2019 23.4 (17:40) 10.4 (00:00) 16.9 5.28 (18:00) 2.78 (18:00) 0 0 0 0 0
13-04-2019 22.5 (17:20) 7.5 (00:00) 15 9.44 (18:00) 6.39 (18:00) 0 0 0 0 0
12-04-2019 20.8 (17:10) 5.9 (00:00) 13.3 7.22 (17:40) 3.89 (17:20) 0 0 0 0 0
11-04-2019 19.1 (18:10) 6.2 (00:00) 12.7 8.06 (02:30) 5.56 (02:00) 0 0 0 0 0
10-04-2019 17.1 (17:40) 3.9 (00:00) 10.5 13.06 (18:10) 7.78 (17:50) 0 0 0 0 0
09-04-2019 15.6 (17:50) 6.5 (00:00) 11.1 12.5 (19:10) 8.61 (17:00) 3 0.2 1.2 1.6 0
08-04-2019 17.1 (16:30) 7.1 (00:00) 12.1 15 (19:10) 7.5 (19:10) 9.6 6.2 0.4 1 2
07-04-2019 11.9 (16:40) 7.1 (00:00) 9.5 9.72 (02:40) 5.83 (23:40) 3.4 1 0.4 0.4 1.6
06-04-2019 12.4 (17:30) 5.2 (00:00) 8.8 15.83 (14:10) 9.44 (14:10) 4 0.6 2 1.4 0
05-04-2019 11.6 (16:30) 2.8 (00:00) 7.2 16.39 (09:40) 10 (09:40) 6.2 3 2 1.2 0
04-04-2019 16.5 (16:40) 3.1 (00:00) 9.8 10.28 (19:30) 7.22 (19:20) 1.4 0 0 0 1.4
03-04-2019 17.7 (16:50) 1.4 (00:00) 9.6 12.78 (16:10) 6.67 (16:00) 0 0 0 0 0
02-04-2019 20.7 (17:40) 4.5 (00:00) 12.6 8.61 (18:10) 6.11 (18:00) 0.2 0 0.2 0 0
01-04-2019 16.8 (13:10) 8.8 (00:00) 12.8 6.67 (18:50) 4.72 (14:40) 4.6 0.2 1.6 2.8 0
31-03-2019 19.1 (18:00) 8 (00:00) 13.6 9.17 (20:20) 6.11 (20:20) 0 0 0 0 0
30-03-2019 21.4 (16:50) 7.6 (00:00) 14.5 10.56 (14:50) 5 (09:10) 0 0 0 0 0
29-03-2019 20.2 (16:50) 5.6 (00:00) 12.9 8.61 (14:00) 5.83 (12:00) 0 0 0 0 0
28-03-2019 20.8 (16:00) 3.5 (00:00) 12.1 12.78 (16:00) 8.06 (15:20) 0 0 0 0 0
27-03-2019 20.6 (16:50) 7.9 (00:00) 14.3 12.5 (00:40) 7.5 (02:20) 0 0 0 0 0
26-03-2019 24 (16:30) 10.1 (00:00) 17.1 12.5 (14:40) 8.89 (14:40) 0 0 0 0 0
25-03-2019 23.2 (16:10) 6.3 (00:00) 14.8 11.11 (14:50) 6.94 (14:00) 0 0 0 0 0

Gráficas

Temp. máximas Temp. mínimas Temp. medias Precipitaciones Rachas de viento máximas Velocidades máximas media en intervalos de 10 minutos

Datos horarios

Fecha y hora oficial Temperatura (ºC) Velocidad del viento (km/h) Dirección del viento Racha (km/h) Dirección de racha Precipitación (mm) Presión (hPa) Tendencia (hPa) Humedad (%)
2019-04-23 23:00:00 6.6 11 Oeste 19 Oeste 0.6 -- -- 95
2019-04-23 22:00:00 6.6 9 Sudoeste 19 Sudoeste 0 -- -- 86
2019-04-23 21:00:00 7.7 14 Sudoeste 29 Sudoeste 0 -- -- 80
2019-04-23 20:00:00 8.5 16 Oeste 40 Noroeste 0 -- -- 78
2019-04-23 19:00:00 10.5 23 Oeste 38 Noroeste 0 -- -- 65
2019-04-23 18:00:00 8.9 21 Oeste 58 Oeste 0 -- -- 73
2019-04-23 17:00:00 12.7 27 Oeste 46 Oeste 0 -- -- 61
2019-04-23 16:00:00 12.1 28 Oeste 42 Oeste 0 -- -- 61
2019-04-23 15:00:00 10.2 27 Noroeste 44 Oeste 0.6 -- -- 76
2019-04-23 14:00:00 9.7 30 Oeste 51 Noroeste 0.2 -- -- 80
2019-04-23 13:00:00 10.4 28 Oeste 44 Oeste 0 -- -- 79
2019-04-23 12:00:00 9.2 21 Oeste 40 Oeste 0 -- -- 88
2019-04-23 11:00:00 8.5 19 Oeste 34 Sudoeste 0 -- -- 88
2019-04-23 10:00:00 8 18 Sudoeste 27 Sudoeste 0 -- -- 90
2019-04-23 09:00:00 7 15 Sudoeste 21 Oeste 0 -- -- 98
2019-04-23 08:00:00 6.4 10 Oeste 28 Oeste 0 -- -- 99
2019-04-23 07:00:00 6.8 9 Noroeste 28 Oeste 0 -- -- 98
2019-04-23 06:00:00 7.9 16 Oeste 30 Oeste 0.2 -- -- 96
2019-04-23 05:00:00 8.6 13 Oeste 28 Oeste 0.2 -- -- 98
2019-04-23 04:00:00 8.8 10 Oeste 26 Oeste 2 -- -- 98
2019-04-23 03:00:00 9.1 13 Noroeste 44 Oeste 1.8 -- -- 95
2019-04-23 02:00:00 11.6 15 Sudoeste 41 Sudoeste 0.6 -- -- 90
2019-04-23 01:00:00 12 21 Sudoeste 34 Sudoeste 0 -- -- 84
2019-04-23 00:00:00 12.7 21 Sudoeste 32 Sudoeste 0 -- -- 82
2019-04-22 23:00:00 14.2 24 Sudoeste 32 Sudoeste 0 -- -- 73
2019-04-22 22:00:00 15.7 15 Oeste 22 Oeste 0 -- -- 59
2019-04-22 21:00:00 16.1 10 Oeste 27 Oeste 0 -- -- 63
2019-04-22 20:00:00 17.3 18 Oeste 32 Sudoeste 0 -- -- 57
2019-04-22 19:00:00 18.4 21 Oeste 39 Oeste 0 -- -- 53
2019-04-22 18:00:00 19.6 22 Oeste 42 Sudoeste 0 -- -- 42
2019-04-22 17:00:00 20.8 21 Oeste 36 Oeste 0 -- -- 45
2019-04-22 16:00:00 21 21 Oeste 34 Oeste 0 -- -- 37
2019-04-22 15:00:00 20.9 17 Sudoeste 29 Sudoeste 0 -- -- 48
2019-04-22 14:00:00 19.9 12 Sudoeste 29 Sur 0 -- -- 54
2019-04-22 13:00:00 18.8 12 Sur 24 Sudoeste 0 -- -- 57
2019-04-22 12:00:00 18.1 9 Sur 15 Sur 0 -- -- 57
2019-04-22 11:00:00 16.4 11 Sur 16 Sur 0 -- -- 61
2019-04-22 10:00:00 14.2 10 Sudeste 14 Sudeste 0 -- -- 69
2019-04-22 09:00:00 11 5 Sudeste 8 Sudeste 0 -- -- 85
2019-04-22 08:00:00 7.8 6 Sur 8 Sur 0 -- -- 91
2019-04-22 07:00:00 7.5 3 Sudeste 5 Sudeste 0 -- -- 95
2019-04-22 06:00:00 8 0 Calma 4 Sudoeste 0 -- -- 94
2019-04-22 05:00:00 9.1 0 Calma 6 Norte 0 -- -- 88
2019-04-22 04:00:00 10.7 0 Calma 8 Oeste 0 -- -- 84
2019-04-22 03:00:00 11.9 2 Noroeste 4 Norte 0 -- -- 79
2019-04-22 02:00:00 12.3 2 Norte 5 Norte 0 -- -- 69
2019-04-22 01:00:00 12.4 0 Calma 6 Norte 0 -- -- 76
2019-04-22 00:00:00 13.2 4 Nordeste 8 Nordeste 0 -- -- 72
2019-04-21 23:00:00 13.7 3 Sudeste 12 Este 0 -- -- 66
2019-04-21 22:00:00 15 9 Este 16 Este 0 -- -- 59
2019-04-21 21:00:00 16 12 Este 20 Este 0 -- -- 56
2019-04-21 20:00:00 17.4 14 Nordeste 24 Este 0 -- -- 48
2019-04-21 19:00:00 18.3 12 Nordeste 32 Nordeste 0 -- -- 50
2019-04-21 18:00:00 19.6 17 Nordeste 29 Este 0 -- -- 44
2019-04-21 17:00:00 19 20 Nordeste 30 Nordeste 0 -- -- 45
2019-04-21 16:00:00 19.1 17 Nordeste 36 Este 0 -- -- 46
2019-04-21 15:00:00 18.6 17 Nordeste 36 Nordeste 0 -- -- 46
2019-04-21 14:00:00 18 17 Nordeste 31 Nordeste 0 -- -- 54
2019-04-21 13:00:00 18 15 Nordeste 31 Este 0 -- -- 51
2019-04-21 12:00:00 16.6 17 Nordeste 25 Nordeste 0 -- -- 55
2019-04-21 11:00:00 15.3 11 Norte 17 Nordeste 0 -- -- 60
2019-04-21 10:00:00 13.6 8 Nordeste 15 Norte 0 -- -- 64
2019-04-21 09:00:00 10.9 8 Norte 14 Nordeste 0 -- -- 76
2019-04-21 08:00:00 8.6 4 Noroeste 23 Nordeste 0 -- -- 83
2019-04-21 07:00:00 9.4 17 Nordeste 26 Nordeste 0 -- -- 79
2019-04-21 06:00:00 9.8 19 Nordeste 26 Nordeste 0 -- -- 80
2019-04-21 05:00:00 10.7 18 Nordeste 28 Este 0 -- -- 79
2019-04-21 04:00:00 11.5 17 Este 28 Este 0 -- -- 66
2019-04-21 03:00:00 11 11 Este 16 Este 0 -- -- 70
2019-04-21 02:00:00 11.3 14 Este 25 Sudeste 0 -- -- 76
2019-04-21 01:00:00 11.1 11 Sudeste 24 Sudeste 0 -- -- 80
2019-04-21 00:00:00 11.9 19 Sudeste 30 Sudeste 0 -- -- 77
2019-04-20 23:00:00 12.8 21 Sudeste 34 Sudeste 0 -- -- 71
2019-04-20 22:00:00 13.6 19 Sudeste 38 Sudeste 0 -- -- 69
2019-04-20 21:00:00 15.4 24 Sudeste 34 Sudeste 0 -- -- 66
2019-04-20 20:00:00 18 17 Sudeste 27 Sudeste 0 -- -- 61
2019-04-20 19:00:00 20.2 19 Sudeste 39 Este 0 -- -- 51
2019-04-20 18:00:00 22 23 Este 40 Este 0 -- -- 44
2019-04-20 17:00:00 20.8 23 Este 42 Este 0 -- -- 48
2019-04-20 16:00:00 21.7 16 Este 47 Este 0 -- -- 44
2019-04-20 15:00:00 20.1 24 Este 39 Este 0 -- -- 48
2019-04-20 14:00:00 18.9 17 Este 38 Nordeste 0 -- -- 49
2019-04-20 13:00:00 19.1 26 Nordeste 41 Este 0 -- -- 51
2019-04-20 12:00:00 17.5 24 Nordeste 37 Nordeste 0 -- -- 61
2019-04-20 11:00:00 14 21 Nordeste 33 Nordeste 0 -- -- 76
2019-04-20 10:00:00 11.2 16 Nordeste 25 Norte 0 -- -- 93
2019-04-20 09:00:00 10.7 8 Nordeste 23 Nordeste 0.2 -- -- 95
2019-04-20 08:00:00 10.5 12 Nordeste 22 Nordeste 0 -- -- 93
2019-04-20 07:00:00 10 18 Nordeste 30 Nordeste 0 -- -- 94
2019-04-20 06:00:00 9.7 13 Nordeste 19 Norte 0 -- -- 95
2019-04-20 05:00:00 9.8 12 Nordeste 22 Nordeste 0 -- -- 94
2019-04-20 04:00:00 9.9 6 Norte 17 Nordeste 0 -- -- 94
2019-04-20 03:00:00 9.9 9 Nordeste 17 Nordeste 0 -- -- 92
2019-04-20 02:00:00 10.7 9 Nordeste 25 Este 0 -- -- 89
2019-04-20 01:00:00 10.8 16 Este 23 Este 0.2 -- -- 89
2019-04-20 00:00:00 11 15 Este 26 Sudeste 0 -- -- 91
2019-04-19 23:00:00 12.1 18 Este 31 Este 0 -- -- 80
2019-04-19 22:00:00 12.7 13 Sudeste 23 Sudeste 0 -- -- 80
2019-04-19 21:00:00 13.1 12 Este 33 Sudeste 0.2 -- -- 81
2019-04-19 20:00:00 15.9 18 Este 27 Nordeste 0 -- -- 62
2019-04-19 19:00:00 16.7 12 Este 31 Nordeste 0 -- -- 64
2019-04-19 18:00:00 14.9 11 Oeste 23 Nordeste 0 -- -- 80
2019-04-19 17:00:00 15 18 Nordeste 29 Este 0 -- -- 71
2019-04-19 16:00:00 16.2 6 Norte 15 Noroeste 0 -- -- 67
2019-04-19 15:00:00 16.5 9 Oeste 17 Noroeste 0 -- -- 73
2019-04-19 14:00:00 15.7 6 Sudeste 21 Este 0 -- -- 73
2019-04-19 13:00:00 14.4 11 Sudeste 19 Sudeste 0 -- -- 83
2019-04-19 12:00:00 12.3 12 Sudeste 16 Sudeste 0 -- -- 92
2019-04-19 11:00:00 11.1 8 Sudeste 16 Este 0 -- -- 96
2019-04-19 10:00:00 10.7 10 Sudeste 16 Sudeste 0.2 -- -- 100
2019-04-19 09:00:00 9.2 2 Sudeste 7 Sudeste 0.2 -- -- 100
2019-04-19 08:00:00 7.6 0 Calma 4 Noroeste 0 -- -- 100
2019-04-19 07:00:00 7.2 0 Calma 3 Noroeste 0 -- -- 100
2019-04-19 06:00:00 7.6 2 Noroeste 8 Oeste 0 -- -- 100
2019-04-19 05:00:00 7.9 0 Calma 3 Sur 0 -- -- 99
2019-04-19 04:00:00 8.9 0 Calma 5 Oeste 0 -- -- 99
2019-04-19 03:00:00 9.2 3 Oeste 13 Sudoeste 0 -- -- 97
2019-04-19 02:00:00 9.7 5 Noroeste 11 Oeste 0 -- -- 98
2019-04-19 01:00:00 9.9 0 Calma 18 Sudoeste 0 -- -- 98
2019-04-19 00:00:00 9.7 8 Oeste 13 Oeste 0 -- -- 100
2019-04-18 23:00:00 9.3 3 Este 9 Sudeste 0 -- -- 99
2019-04-18 22:00:00 9.7 7 Oeste 31 Oeste 2.2 -- -- 99
2019-04-18 21:00:00 9.9 22 Oeste 36 Oeste 10 -- -- 93
2019-04-18 20:00:00 12.1 20 Oeste 32 Oeste 0.8 -- -- 81
2019-04-18 19:00:00 16 4 Noroeste 20 Oeste 1.4 -- -- 57
2019-04-18 18:00:00 16.8 12 Oeste 22 Oeste 0 -- -- 59
2019-04-18 17:00:00 17.9 6 Oeste 19 Oeste 0 -- -- 52
2019-04-18 16:00:00 16.8 10 Noroeste 21 Sudoeste 0 -- -- 57
2019-04-18 15:00:00 16.8 11 Oeste 23 Oeste 0 -- -- 57
2019-04-18 14:00:00 16.2 13 Oeste 27 Oeste 0 -- -- 61
2019-04-18 13:00:00 15 11 Oeste 20 Oeste 0 -- -- 72
2019-04-18 12:00:00 14.3 6 Sudoeste 17 Sudoeste 0 -- -- 82
2019-04-18 11:00:00 12.2 2 Sudoeste 10 Sudoeste 0 -- -- 90
2019-04-18 10:00:00 10.9 6 Sudoeste 13 Sudoeste 0 -- -- 95
2019-04-18 09:00:00 10 4 Sur 11 Sur 0 -- -- 99
2019-04-18 08:00:00 9.4 8 Sur 10 Sur 0.2 -- -- 99
2019-04-18 07:00:00 9.4 7 Sur 11 Sudeste 0.2 -- -- 97
2019-04-18 06:00:00 10 8 Sudeste 11 Sudeste 0 -- -- 98
2019-04-18 05:00:00 10.1 7 Sur 14 Sudoeste 0 -- -- 94
2019-04-18 04:00:00 10.2 10 Sur 19 Sur 0 -- -- 96
2019-04-18 03:00:00 10.2 8 Sur 22 Sur 0 -- -- 96
2019-04-18 02:00:00 10.2 13 Sudoeste 25 Sur 0 -- -- 95
2019-04-18 01:00:00 10.4 8 Sur 21 Sur 0 -- -- 95
2019-04-18 00:00:00 10.4 11 Sur 25 Sudoeste 0.2 -- -- 94
2019-04-17 23:00:00 10.7 11 Sudoeste 28 Sur 0.2 -- -- 92
2019-04-17 22:00:00 11 13 Sudoeste 35 Sudoeste 0 -- -- 91
2019-04-17 21:00:00 11.5 19 Sur 29 Sur 0.6 -- -- 94
2019-04-17 20:00:00 11.3 11 Sudeste 23 Sur 0.2 -- -- 98
2019-04-17 19:00:00 11.4 10 Sur 21 Sur 1.2 -- -- 97
2019-04-17 18:00:00 11.4 12 Sudoeste 33 Oeste 2.8 -- -- 95
2019-04-17 17:00:00 12.6 21 Oeste 39 Sudoeste 0 -- -- 89
2019-04-17 16:00:00 18.1 24 Sur 49 Sur 0 -- -- 57
2019-04-17 15:00:00 19.9 31 Sur 55 Sur 0 -- -- 50
2019-04-17 14:00:00 17.5 25 Sur 44 Sur 0 -- -- 59
2019-04-17 13:00:00 17.3 23 Sudeste 38 Sudeste 0 -- -- 57
2019-04-17 12:00:00 15.9 16 Sudeste 24 Sudeste 0 -- -- 62
2019-04-17 11:00:00 13.8 12 Sudeste 18 Sudeste 0 -- -- 70
2019-04-17 10:00:00 13 9 Sudeste 14 Sudeste 0 -- -- 70
2019-04-17 09:00:00 10.1 9 Sudeste 12 Sudeste 0 -- -- 82
2019-04-17 08:00:00 9.7 6 Sudeste 19 Sur 0 -- -- 79
2019-04-17 07:00:00 11.3 12 Sudoeste 19 Sur 0 -- -- 73
2019-04-17 06:00:00 11 10 Sudoeste 23 Sudoeste 0 -- -- 72
2019-04-17 05:00:00 11.6 17 Sudoeste 30 Sudoeste 0 -- -- 63
2019-04-17 04:00:00 12.8 13 Sudoeste 24 Sur 0 -- -- 63
2019-04-17 03:00:00 14 10 Sudoeste 22 Sur 0 -- -- 57
2019-04-17 02:00:00 14.6 10 Sudoeste 18 Sudoeste 0 -- -- 46
2019-04-17 01:00:00 15.8 13 Sudoeste 27 Oeste 0 -- -- 44
2019-04-17 00:00:00 16.7 14 Sudoeste 24 Sudoeste 0 -- -- 43
2019-04-16 23:00:00 17.4 14 Sudoeste 25 Sudoeste 0 -- -- 45
2019-04-16 22:00:00 19.4 18 Sur 24 Sur 0 -- -- 40
2019-04-16 21:00:00 19.9 6 Sur 22 Sudoeste 0 -- -- 39
2019-04-16 20:00:00 22 10 Sur 28 Sur 0 -- -- 34
2019-04-16 19:00:00 23.1 15 Sudeste 32 Sur 0 -- -- 34
2019-04-16 18:00:00 22.9 16 Sudeste 32 Sudeste 0 -- -- 34
2019-04-16 17:00:00 22.5 15 Sudeste 32 Sudeste 0 -- -- 37
2019-04-16 16:00:00 21.2 17 Sudeste 36 Sudeste 0 -- -- 41
2019-04-16 15:00:00 20.7 14 Sudeste 27 Sur 0 -- -- 45
2019-04-16 14:00:00 19.4 16 Sudeste 28 Sur 0 -- -- 46
2019-04-16 13:00:00 17.9 15 Sudeste 25 Sudeste 0 -- -- 55
2019-04-16 12:00:00 16.5 15 Sur 22 Sur 0 -- -- 64
2019-04-16 11:00:00 14.9 9 Sur 16 Sur 0 -- -- 71
2019-04-16 10:00:00 12.6 9 Sudeste 13 Sudeste 0 -- -- 84
2019-04-16 09:00:00 8.6 0 Calma 2 Sur 0 -- -- 100
2019-04-16 08:00:00 3.8 0 Calma -- -- 0 -- -- 100
2019-04-16 07:00:00 4.5 0 Calma -- -- 0 -- -- 100
2019-04-16 06:00:00 5 0 Calma 6 Este 0 -- -- 99
2019-04-16 05:00:00 6 0 Calma 6 Noroeste 0 -- -- 98
2019-04-16 04:00:00 6.8 3 Oeste 6 Oeste 0 -- -- 95
2019-04-16 03:00:00 7.8 4 Norte 12 Oeste 0 -- -- 93
2019-04-16 02:00:00 9.5 11 Oeste 15 Oeste 0 -- -- 89
2019-04-16 01:00:00 10.4 10 Noroeste 15 Noroeste 0 -- -- 85
2019-04-16 00:00:00 11.2 10 Noroeste 14 Noroeste 0 -- -- 80
2019-04-15 23:00:00 11.7 8 Noroeste 14 Noroeste 0 -- -- 76
2019-04-15 22:00:00 12.9 7 Noroeste 20 Oeste 0 -- -- 70
2019-04-15 21:00:00 15.9 16 Oeste 30 Oeste 0 -- -- 58
2019-04-15 20:00:00 17.8 20 Oeste 33 Oeste 0 -- -- 56
2019-04-15 19:00:00 17.8 19 Oeste 31 Oeste 0 -- -- 56
2019-04-15 18:00:00 18.3 14 Oeste 47 Oeste 0 -- -- 59
2019-04-15 17:00:00 16.7 22 Oeste 32 Noroeste 0 -- -- 66
2019-04-15 16:00:00 15.4 18 Noroeste 45 Oeste 0 -- -- 71
2019-04-15 15:00:00 18.3 27 Oeste 41 Noroeste 0 -- -- 67
2019-04-15 14:00:00 19.4 23 Oeste 41 Oeste 0 -- -- 57
2019-04-15 13:00:00 17.9 15 Oeste 28 Oeste 0 -- -- 61
2019-04-15 12:00:00 17.5 14 Oeste 33 Oeste 0 -- -- 69
2019-04-15 11:00:00 16.7 17 Oeste 28 Sudoeste 0 -- -- 78
2019-04-15 10:00:00 15.7 11 Oeste 18 Oeste 0 -- -- 83
2019-04-15 09:00:00 13.7 12 Sudoeste 17 Sudoeste 0 -- -- 95
2019-04-15 08:00:00 12.6 8 Sur 11 Sudeste 0 -- -- 95
2019-04-15 07:00:00 12.8 10 Sudeste 12 Sudeste 0 -- -- 93
2019-04-15 06:00:00 12.1 5 Sudeste 9 Este 0 -- -- 94
2019-04-15 05:00:00 11.8 4 Este 8 Sudeste 0 -- -- 96
2019-04-15 04:00:00 13.2 3 Sur 6 Sur 0 -- -- 89
2019-04-15 03:00:00 13.8 6 Sudeste 7 Sudeste 0 -- -- 89
2019-04-15 02:00:00 14.4 3 Este 5 Este 0 -- -- 88
2019-04-15 01:00:00 14.5 0 Calma 0 Calma 0 -- -- 88
2019-04-15 00:00:00 14.9 0 Calma 0 Calma 0 -- -- 85
2019-04-14 23:00:00 15.1 0 Calma 4 Sur 0 -- -- 86
2019-04-14 22:00:00 16.4 0 Calma 6 Este 0 -- -- 79
2019-04-14 21:00:00 19.5 3 Sur 11 Sudoeste 0 -- -- 67
2019-04-14 20:00:00 21.7 6 Oeste 15 Sudoeste 0 -- -- 60
2019-04-14 19:00:00 22.1 7 Sur 19 Sudoeste 0 -- -- 60
2019-04-14 18:00:00 22.7 10 Sudoeste 19 Sudoeste 0 -- -- 55
2019-04-14 17:00:00 22.6 9 Sudoeste 19 Sudoeste 0 -- -- 55
2019-04-14 16:00:00 21 2 Norte 11 Sudeste 0 -- -- 61
2019-04-14 15:00:00 21.1 3 Sur 13 Noroeste 0 -- -- 64
2019-04-14 14:00:00 21 4 Este 15 Oeste 0 -- -- 63
2019-04-14 13:00:00 19.6 5 Sudoeste 13 Sudoeste 0 -- -- 71
2019-04-14 12:00:00 16.8 4 Sudeste 11 Sudeste 0 -- -- 82
2019-04-14 11:00:00 15.2 2 Sudoeste 7 Oeste 0 -- -- 90
2019-04-14 10:00:00 13.3 3 Sur 5 Sur 0 -- -- 100
2019-04-14 09:00:00 12.1 0 Calma 4 Este 0 -- -- 100
2019-04-14 08:00:00 10.6 2 Este 4 Sur 0 -- -- 100
2019-04-14 07:00:00 11.1 0 Calma 4 Sudeste 0 -- -- 100
2019-04-14 06:00:00 11.2 0 Calma 4 Sur 0 -- -- 100
2019-04-14 05:00:00 10.4 2 Norte 4 Norte 0 -- -- 100
2019-04-14 04:00:00 10.8 3 Norte 8 Oeste 0 -- -- 99
2019-04-14 03:00:00 11.1 0 Calma 9 Noroeste 0 -- -- 95
2019-04-14 02:00:00 12.3 6 Oeste 11 Noroeste 0 -- -- 92
2019-04-14 01:00:00 13.4 8 Noroeste 10 Noroeste 0 -- -- 89
2019-04-14 00:00:00 14 6 Noroeste 22 Oeste 0 -- -- 86
2019-04-13 23:00:00 14.9 12 Noroeste 17 Oeste 0 -- -- 81
2019-04-13 22:00:00 15.5 7 Noroeste 17 Oeste 0 -- -- 72
2019-04-13 21:00:00 17.5 13 Oeste 25 Oeste 0 -- -- 61
2019-04-13 20:00:00 18.9 17 Oeste 26 Oeste 0 -- -- 52
2019-04-13 19:00:00 19.4 18 Oeste 32 Oeste 0 -- -- 41
2019-04-13 18:00:00 21.1 23 Oeste 34 Oeste 0 -- -- 36
2019-04-13 17:00:00 22.4 15 Oeste 25 Sudoeste 0 -- -- 27
2019-04-13 16:00:00 21.6 9 Oeste 27 Sudoeste 0 -- -- 32
2019-04-13 15:00:00 20.8 8 Sudoeste 25 Oeste 0 -- -- 40
2019-04-13 14:00:00 20.1 11 Sudoeste 22 Sudoeste 0 -- -- 40
2019-04-13 13:00:00 18.4 12 Sudoeste 19 Sudoeste 0 -- -- 55
2019-04-13 12:00:00 17.7 9 Sudoeste 15 Sudoeste 0 -- -- 62
2019-04-13 11:00:00 15.3 6 Noroeste 10 Noroeste 0 -- -- 68
2019-04-13 10:00:00 11.1 2 Este 5 Sudeste 0 -- -- 89
2019-04-13 09:00:00 8.6 0 Calma 4 Este 0 -- -- 97
2019-04-13 08:00:00 7.6 0 Calma 4 Oeste 0 -- -- 91
2019-04-13 07:00:00 8.4 4 Noroeste 5 Oeste 0 -- -- 89
2019-04-13 06:00:00 9 3 Noroeste 9 Oeste 0 -- -- 87
2019-04-13 05:00:00 8.8 5 Oeste 8 Oeste 0 -- -- 87
2019-04-13 04:00:00 8.4 6 Oeste 8 Oeste 0 -- -- 86
2019-04-13 03:00:00 8.9 6 Oeste 9 Oeste 0 -- -- 78
2019-04-13 02:00:00 10.4 4 Oeste 15 Noroeste 0 -- -- 72
2019-04-13 01:00:00 10.8 12 Noroeste 15 Noroeste 0 -- -- 68
2019-04-13 00:00:00 9 2 Sudoeste 4 Sudoeste 0 -- -- 69
2019-04-12 23:00:00 10.7 0 Calma 14 Noroeste 0 -- -- 57
2019-04-12 22:00:00 12.3 0 Calma 9 Noroeste 0 -- -- 59
2019-04-12 21:00:00 16.3 8 Noroeste 14 Noroeste 0 -- -- 37
2019-04-12 20:00:00 19.5 9 Norte 17 Noroeste 0 -- -- 30
2019-04-12 19:00:00 20.4 4 Noroeste 18 Nordeste 0 -- -- 31
2019-04-12 18:00:00 20.7 12 Noroeste 26 Noroeste 0 -- -- 30
2019-04-12 17:00:00 20.5 3 Sudeste 18 Nordeste 0 -- -- 34
2019-04-12 16:00:00 19.6 8 Este 18 Norte 0 -- -- 33
2019-04-12 15:00:00 19 11 Norte 23 Nordeste 0 -- -- 33
2019-04-12 14:00:00 18.7 4 Este 23 Este 0 -- -- 35
2019-04-12 13:00:00 17.5 9 Norte 17 Sudeste 0 -- -- 36
2019-04-12 12:00:00 16.7 11 Sudeste 20 Este 0 -- -- 41
2019-04-12 11:00:00 15.1 11 Este 19 Este 0 -- -- 47
2019-04-12 10:00:00 11.1 9 Norte 14 Norte 0 -- -- 63
2019-04-12 09:00:00 8.8 5 Norte 14 Norte 0 -- -- 66
2019-04-12 08:00:00 6.3 9 Norte 14 Norte 0 -- -- 75
2019-04-12 07:00:00 6.1 4 Norte 12 Norte 0 -- -- 74
2019-04-12 06:00:00 6.9 9 Norte 13 Norte 0 -- -- 72
2019-04-12 05:00:00 7.7 7 Norte 15 Norte 0 -- -- 70
2019-04-12 04:00:00 7.1 10 Norte 15 Norte 0 -- -- 74
2019-04-12 03:00:00 6.5 8 Noroeste 13 Oeste 0 -- -- 77
2019-04-12 02:00:00 8.1 2 Norte 5 Nordeste 0 -- -- 68
2019-04-12 01:00:00 10.1 6 Norte 12 Nordeste 0 -- -- 60
2019-04-12 00:00:00 10.2 4 Nordeste 15 Nordeste 0 -- -- 61
2019-04-11 23:00:00 11.5 4 Norte 8 Norte 0 -- -- 55
2019-04-11 22:00:00 12.8 3 Noroeste 13 Noroeste 0 -- -- 52
2019-04-11 21:00:00 14.4 6 Noroeste 14 Norte 0 -- -- 50
2019-04-11 20:00:00 16.8 9 Norte 22 Noroeste 0 -- -- 41
2019-04-11 19:00:00 18.3 11 Norte 22 Norte 0 -- -- 37
2019-04-11 18:00:00 18.8 13 Norte 27 Noroeste 0 -- -- 37
2019-04-11 17:00:00 18.3 12 Norte 26 Norte 0 -- -- 37
2019-04-11 16:00:00 17.8 12 Noroeste 26 Noroeste 0 -- -- 40
2019-04-11 15:00:00 17.5 14 Norte 28 Norte 0 -- -- 44
2019-04-11 14:00:00 16.6 10 Norte 19 Este 0 -- -- 48
2019-04-11 13:00:00 16.2 10 Norte 18 Norte 0 -- -- 48
2019-04-11 12:00:00 15 9 Nordeste 17 Norte 0 -- -- 61
2019-04-11 11:00:00 12.6 13 Nordeste 18 Nordeste 0 -- -- 72
2019-04-11 10:00:00 10.3 8 Norte 18 Norte 0 -- -- 79
2019-04-11 09:00:00 7.9 8 Noroeste 13 Noroeste 0 -- -- 87
2019-04-11 08:00:00 6.5 5 Noroeste 18 Norte 0 -- -- 89
2019-04-11 07:00:00 6.9 13 Norte 17 Norte 0 -- -- 90
2019-04-11 06:00:00 7.7 13 Norte 20 Norte 0 -- -- 87
2019-04-11 05:00:00 7.7 13 Norte 23 Noroeste 0 -- -- 87
2019-04-11 04:00:00 7.3 13 Norte 26 Noroeste 0 -- -- 89
2019-04-11 03:00:00 7.9 14 Norte 29 Noroeste 0 -- -- 86
2019-04-11 02:00:00 9.2 20 Noroeste 28 Noroeste 0 -- -- 78
2019-04-11 01:00:00 9 14 Noroeste 21 Noroeste 0 -- -- 78
2019-04-11 00:00:00 10.3 13 Norte 28 Noroeste 0 -- -- 75
2019-04-10 23:00:00 10.9 11 Noroeste 22 Noroeste 0 -- -- 72
2019-04-10 22:00:00 11.5 15 Noroeste 22 Noroeste 0 -- -- 72
2019-04-10 21:00:00 13.3 14 Noroeste 30 Noroeste 0 -- -- 62
2019-04-10 20:00:00 15.1 21 Noroeste 36 Noroeste 0 -- -- 57
2019-04-10 19:00:00 16.3 25 Noroeste 47 Oeste 0 -- -- 51
2019-04-10 18:00:00 16.5 27 Noroeste 42 Noroeste 0 -- -- 51
2019-04-10 17:00:00 16.6 21 Noroeste 40 Noroeste 0 -- -- 48
2019-04-10 16:00:00 16.2 22 Noroeste 41 Noroeste 0 -- -- 55
2019-04-10 15:00:00 15.3 18 Noroeste 34 Noroeste 0 -- -- 59
2019-04-10 14:00:00 14.2 18 Noroeste 36 Noroeste 0 -- -- 60
2019-04-10 13:00:00 14 19 Noroeste 31 Oeste 0 -- -- 60
2019-04-10 12:00:00 12.2 20 Noroeste 26 Noroeste 0 -- -- 71
2019-04-10 11:00:00 10.4 16 Noroeste 26 Noroeste 0 -- -- 83
2019-04-10 10:00:00 7.8 14 Oeste 20 Oeste 0 -- -- 97
2019-04-10 09:00:00 4.9 7 Oeste 9 Oeste 0 -- -- 100
2019-04-10 08:00:00 4 4 Noroeste 9 Noroeste 0 -- -- 100
2019-04-10 07:00:00 4.8 7 Noroeste 12 Oeste 0 -- -- 99
2019-04-10 06:00:00 5.4 8 Noroeste 11 Oeste 0 -- -- 99
2019-04-10 05:00:00 5.7 9 Noroeste 14 Oeste 0 -- -- 99
2019-04-10 04:00:00 5.8 11 Noroeste 18 Oeste 0 -- -- 98
2019-04-10 03:00:00 5.7 9 Oeste 12 Oeste 0 -- -- 97
2019-04-10 02:00:00 6.8 8 Oeste 21 Noroeste 0 -- -- 92
2019-04-10 01:00:00 8.4 13 Oeste 23 Noroeste 0 -- -- 87
2019-04-10 00:00:00 8.4 13 Noroeste 30 Noroeste 0 -- -- 84
2019-04-09 23:00:00 9.8 22 Noroeste 31 Oeste 0 -- -- 76
2019-04-09 22:00:00 10.1 7 Noroeste 28 Noroeste 0 -- -- 78
2019-04-09 21:00:00 11.8 19 Noroeste 41 Noroeste 0 -- -- 69
2019-04-09 20:00:00 13.3 16 Noroeste 45 Oeste 0 -- -- 68
2019-04-09 19:00:00 14.3 25 Oeste 42 Oeste 0 -- -- 64
2019-04-09 18:00:00 15.4 25 Noroeste 39 Oeste 0 -- -- 54
2019-04-09 17:00:00 15 31 Oeste 44 Oeste 0 -- -- 64
2019-04-09 16:00:00 13.8 25 Oeste 43 Oeste 0.2 -- -- 68
2019-04-09 15:00:00 11.2 23 Oeste 39 Oeste 1.2 -- -- 88
2019-04-09 14:00:00 13.2 19 Oeste 39 Oeste 0.2 -- -- 81
2019-04-09 13:00:00 12.1 20 Oeste 36 Oeste 0 -- -- 75
2019-04-09 12:00:00 10.8 24 Oeste 36 Oeste 1 -- -- 85
2019-04-09 11:00:00 9.3 21 Oeste 33 Oeste 0.2 -- -- 95
2019-04-09 10:00:00 8.8 18 Oeste 29 Oeste 0 -- -- 99
2019-04-09 09:00:00 7.7 16 Sudoeste 31 Sudoeste 0 -- -- 100
2019-04-09 08:00:00 7.4 13 Sudoeste 28 Sudoeste 0 -- -- 100
2019-04-09 07:00:00 7.4 12 Sudoeste 21 Sudoeste 0 -- -- 100
2019-04-09 06:00:00 7.5 10 Sudoeste 19 Sudoeste 0 -- -- 100
2019-04-09 05:00:00 7.8 12 Sudoeste 24 Sudoeste 0.2 -- -- 99
2019-04-09 04:00:00 7.6 12 Sudoeste 26 Oeste 0 -- -- 97
2019-04-09 03:00:00 7.5 15 Oeste 22 Oeste 0 -- -- 97
2019-04-09 02:00:00 6.6 4 Oeste 14 Oeste 0 -- -- 96
2019-04-09 01:00:00 7.4 9 Oeste 17 Oeste 0 -- -- 95
2019-04-09 00:00:00 7.1 4 Noroeste 9 Oeste 0 -- -- 95
2019-04-08 23:00:00 8.2 6 Oeste 11 Oeste 0 -- -- 90
2019-04-08 22:00:00 8.8 6 Noroeste 14 Oeste 0 -- -- 88
2019-04-08 21:00:00 9.7 5 Oeste 17 Noroeste 0.2 -- -- 93
2019-04-08 20:00:00 9.7 13 Noroeste 54 Noroeste 1.8 -- -- 93
2019-04-08 19:00:00 13.5 15 Oeste 27 Oeste 0 -- -- 69
2019-04-08 18:00:00 11.9 18 Oeste 38 Oeste 1 -- -- 81
2019-04-08 17:00:00 15.7 18 Oeste 35 Oeste 0 -- -- 53
2019-04-08 16:00:00 16.6 18 Oeste 31 Oeste 0 -- -- 50
2019-04-08 15:00:00 15.9 22 Oeste 37 Sudoeste 0 -- -- 52
2019-04-08 14:00:00 15.6 19 Oeste 36 Sudoeste 0 -- -- 51
2019-04-08 13:00:00 15 21 Oeste 32 Oeste 0 -- -- 54
2019-04-08 12:00:00 13.4 19 Oeste 31 Oeste 0 -- -- 68
2019-04-08 11:00:00 13 15 Oeste 27 Oeste 0 -- -- 85
2019-04-08 10:00:00 11.2 14 Oeste 24 Sudoeste 0 -- -- 95
2019-04-08 09:00:00 10.2 10 Oeste 24 Oeste 0 -- -- 100
2019-04-08 08:00:00 10.1 4 Oeste 18 Oeste 0 -- -- 100
2019-04-08 07:00:00 10.4 10 Oeste 23 Oeste 0.4 -- -- 100
2019-04-08 06:00:00 11 14 Oeste 35 Sudoeste 4.6 -- -- 100
2019-04-08 05:00:00 11 22 Sudoeste 37 Sudoeste 1 -- -- 100
2019-04-08 04:00:00 11 19 Sudoeste 35 Sudoeste 0.4 -- -- 100
2019-04-08 03:00:00 10.8 21 Sudoeste 34 Sudoeste 0.2 -- -- 100
2019-04-08 02:00:00 11.1 19 Sudoeste 36 Sudoeste 0 -- -- 99
2019-04-08 01:00:00 11.4 18 Sudoeste 30 Sudoeste 0 -- -- 100
2019-04-08 00:00:00 11.5 15 Sudoeste 31 Sudoeste 0 -- -- 99
2019-04-07 23:00:00 11.7 12 Sudoeste 19 Sudoeste 0 -- -- 99
2019-04-07 22:00:00 11.6 10 Sudoeste 25 Sudoeste 0 -- -- 99
2019-04-07 21:00:00 11.7 11 Oeste 26 Sudoeste 0 -- -- 99
2019-04-07 20:00:00 11.7 15 Sudoeste 29 Sudoeste 1.4 -- -- 100
2019-04-07 19:00:00 11.3 15 Sudoeste 22 Sudoeste 0.2 -- -- 99
2019-04-07 18:00:00 11.3 13 Sudoeste 22 Sudoeste 0.2 -- -- 97
2019-04-07 17:00:00 11.4 18 Sudoeste 32 Sudoeste 0 -- -- 92
2019-04-07 16:00:00 11.4 18 Sudoeste 31 Sudoeste 0 -- -- 92
2019-04-07 15:00:00 10.5 14 Sudoeste 25 Sudoeste 0.2 -- -- 96
2019-04-07 14:00:00 10.2 13 Sudoeste 25 Sudoeste 0 -- -- 93
2019-04-07 13:00:00 11.2 11 Sudoeste 17 Sudoeste 0 -- -- 85
2019-04-07 12:00:00 10.6 10 Oeste 16 Oeste 0 -- -- 90
2019-04-07 11:00:00 9.3 10 Oeste 14 Sudoeste 0 -- -- 94
2019-04-07 10:00:00 8.5 9 Oeste 16 Oeste 0 -- -- 98
2019-04-07 09:00:00 7.6 12 Oeste 19 Oeste 0.4 -- -- 100
2019-04-07 08:00:00 7.4 13 Oeste 22 Oeste 0 -- -- 100
2019-04-07 07:00:00 7.2 12 Oeste 21 Oeste 0 -- -- 99
2019-04-07 06:00:00 7.3 14 Oeste 29 Oeste 0 -- -- 98
2019-04-07 05:00:00 7.3 14 Oeste 26 Oeste 0.6 -- -- 99
2019-04-07 04:00:00 7.2 15 Oeste 27 Oeste 0 -- -- 98
2019-04-07 03:00:00 7.3 14 Oeste 35 Oeste 0.4 -- -- 98
2019-04-07 02:00:00 7.3 19 Sudoeste 31 Sudoeste 0 -- -- 97
2019-04-07 01:00:00 7.4 13 Oeste 24 Oeste 0 -- -- 93
2019-04-07 00:00:00 7.6 12 Sudoeste 22 Oeste 0 -- -- 86
2019-04-06 23:00:00 7.8 14 Oeste 23 Oeste 0 -- -- 81
2019-04-06 22:00:00 7.1 5 Oeste 29 Noroeste 0 -- -- 84
2019-04-06 21:00:00 8.5 19 Noroeste 41 Noroeste 0 -- -- 77
2019-04-06 20:00:00 9.6 22 Noroeste 48 Oeste 0 -- -- 70
2019-04-06 19:00:00 10.9 10 Noroeste 26 Norte 0 -- -- 74
2019-04-06 18:00:00 8.7 14 Noroeste 47 Norte 0.6 -- -- 86
2019-04-06 17:00:00 11.2 12 Norte 33 Noroeste 0 -- -- 70
2019-04-06 16:00:00 9.1 19 Norte 50 Oeste 0 -- -- 82
2019-04-06 15:00:00 9.5 18 Noroeste 57 Noroeste 0.6 -- -- 83
2019-04-06 14:00:00 10.7 27 Oeste 44 Noroeste 0 -- -- 69
2019-04-06 13:00:00 10.5 24 Oeste 40 Oeste 0.2 -- -- 75
2019-04-06 12:00:00 9.7 21 Oeste 38 Oeste 0 -- -- 88
2019-04-06 11:00:00 7.6 22 Oeste 31 Oeste 0.2 -- -- 94
2019-04-06 10:00:00 6.1 18 Oeste 35 Oeste 1.8 -- -- 97
2019-04-06 09:00:00 5.8 16 Sudoeste 28 Sudoeste 0 -- -- 99
2019-04-06 08:00:00 5.8 14 Sudoeste 27 Oeste 0 -- -- 100
2019-04-06 07:00:00 6.1 17 Oeste 29 Oeste 0 -- -- 99
2019-04-06 06:00:00 6.1 18 Oeste 32 Oeste 0.6 -- -- 99
2019-04-06 05:00:00 5.9 19 Oeste 33 Oeste 0 -- -- 99
2019-04-06 04:00:00 6 15 Oeste 27 Oeste 0 -- -- 97
2019-04-06 03:00:00 5.9 18 Oeste 29 Oeste 0 -- -- 99
2019-04-06 02:00:00 5.7 13 Oeste 25 Oeste 0 -- -- 99
2019-04-06 01:00:00 5.2 16 Oeste 23 Oeste 0 -- -- 99
2019-04-06 00:00:00 5.6 11 Oeste 21 Sudoeste 0 -- -- 97
2019-04-05 23:00:00 5.9 14 Oeste 26 Sudoeste 0 -- -- 94
2019-04-05 22:00:00 6.7 17 Oeste 30 Oeste 0 -- -- 86
2019-04-05 21:00:00 7.2 18 Oeste 37 Oeste 0 -- -- 82
2019-04-05 20:00:00 8.2 19 Oeste 37 Oeste 0 -- -- 82
2019-04-05 19:00:00 8.7 31 Oeste 46 Oeste 0 -- -- 77
2019-04-05 18:00:00 9.2 23 Oeste 42 Oeste 0.2 -- -- 73
2019-04-05 17:00:00 11.6 26 Oeste 39 Oeste 0 -- -- 67
2019-04-05 16:00:00 10.9 22 Oeste 32 Oeste 0 -- -- 66
2019-04-05 15:00:00 7.4 8 Oeste 53 Oeste 1 -- -- 87
2019-04-05 14:00:00 9.4 23 Oeste 36 Sudoeste 0 -- -- 72
2019-04-05 13:00:00 7.7 18 Oeste 36 Sudoeste 0 -- -- 86
2019-04-05 12:00:00 7.1 18 Oeste 29 Oeste 0 -- -- 86
2019-04-05 11:00:00 4.8 14 Norte 37 Noroeste 0.2 -- -- 95
2019-04-05 10:00:00 3 24 Noroeste 59 Noroeste 1.8 -- -- 98
2019-04-05 09:00:00 6.5 12 Oeste 22 Oeste 0 -- -- 99
2019-04-05 08:00:00 6.6 13 Sudoeste 22 Sudoeste 0 -- -- 99
2019-04-05 07:00:00 6.9 13 Sudoeste 32 Sudoeste 0 -- -- 98
2019-04-05 06:00:00 7.2 15 Sudoeste 27 Sudoeste 0 -- -- 97
2019-04-05 05:00:00 7.1 15 Sudoeste 31 Sudoeste 0.2 -- -- 100
2019-04-05 04:00:00 6.9 16 Sudoeste 33 Sudoeste 1 -- -- 100
2019-04-05 03:00:00 6.6 21 Sudoeste 35 Sudoeste 1 -- -- 98
2019-04-05 02:00:00 6.6 15 Sudoeste 36 Sudoeste 0.2 -- -- 96
2019-04-05 01:00:00 6.8 17 Sudoeste 29 Sudoeste 0.6 -- -- 94
2019-04-05 00:00:00 7 12 Oeste 22 Noroeste 1 -- -- 93
2019-04-04 23:00:00 7.8 16 Noroeste 33 Noroeste 0.4 -- -- 87
2019-04-04 22:00:00 11 17 Noroeste 31 Oeste 0 -- -- 57
2019-04-04 21:00:00 11.9 19 Oeste 32 Oeste 0 -- -- 51
2019-04-04 20:00:00 12.7 18 Oeste 37 Oeste 0 -- -- 45
2019-04-04 19:00:00 13.9 23 Oeste 35 Noroeste 0 -- -- 41
2019-04-04 18:00:00 16 21 Oeste 32 Sudoeste 0 -- -- 32
2019-04-04 17:00:00 16.1 12 Oeste 33 Noroeste 0 -- -- 28
2019-04-04 16:00:00 15.7 10 Noroeste 24 Oeste 0 -- -- 27
2019-04-04 15:00:00 15.1 9 Oeste 21 Norte 0 -- -- 34
2019-04-04 14:00:00 13.8 8 Noroeste 22 Norte 0 -- -- 36
2019-04-04 13:00:00 12.3 8 Norte 26 Nordeste 0 -- -- 41
2019-04-04 12:00:00 10.5 10 Nordeste 24 Nordeste 0 -- -- 47
2019-04-04 11:00:00 9 10 Norte 31 Nordeste 0 -- -- 49
2019-04-04 10:00:00 6.9 17 Nordeste 27 Norte 0 -- -- 56
2019-04-04 09:00:00 4.6 17 Norte 27 Norte 0 -- -- 62
2019-04-04 08:00:00 3.5 12 Norte 19 Noroeste 0 -- -- 64
2019-04-04 07:00:00 3.3 5 Norte 17 Noroeste 0 -- -- 66
2019-04-04 06:00:00 4.8 12 Noroeste 22 Norte 0 -- -- 60
2019-04-04 05:00:00 5.3 13 Norte 22 Norte 0 -- -- 57
2019-04-04 04:00:00 5.9 12 Norte 33 Norte 0 -- -- 55
2019-04-04 03:00:00 7.2 20 Norte 32 Norte 0 -- -- 51
2019-04-04 02:00:00 7.7 11 Norte 22 Norte 0 -- -- 54
2019-04-04 01:00:00 8.2 15 Noroeste 28 Noroeste 0 -- -- 58
2019-04-04 00:00:00 9.4 12 Noroeste 24 Norte 0 -- -- 51
2019-04-03 23:00:00 10.5 15 Norte 26 Noroeste 0 -- -- 45
2019-04-03 22:00:00 10.8 0 Calma 8 Nordeste 0 -- -- 47
2019-04-03 21:00:00 13.1 5 Norte 26 Norte 0 -- -- 41
2019-04-03 20:00:00 15.1 16 Norte 33 Norte 0 -- -- 35
2019-04-03 19:00:00 16.6 17 Norte 37 Norte 0 -- -- 34
2019-04-03 18:00:00 17.2 18 Norte 35 Norte 0 -- -- 33
2019-04-03 17:00:00 17.5 19 Noroeste 46 Noroeste 0 -- -- 32
2019-04-03 16:00:00 17.2 24 Noroeste 39 Noroeste 0 -- -- 34
2019-04-03 15:00:00 16.5 19 Noroeste 36 Noroeste 0 -- -- 40
2019-04-03 14:00:00 15.6 18 Noroeste 32 Noroeste 0 -- -- 51
2019-04-03 13:00:00 14.1 14 Norte 24 Noroeste 0 -- -- 55
2019-04-03 12:00:00 12.4 11 Norte 23 Norte 0 -- -- 64
2019-04-03 11:00:00 10.3 12 Noroeste 21 Noroeste 0 -- -- 74
2019-04-03 10:00:00 8.7 7 Oeste 10 Oeste 0 -- -- 83
2019-04-03 09:00:00 4.9 5 Noroeste 10 Noroeste 0 -- -- 100
2019-04-03 08:00:00 1.4 0 Calma 5 Oeste 0 -- -- 98
2019-04-03 07:00:00 3.1 2 Este 5 Sudeste 0 -- -- 95
2019-04-03 06:00:00 5.3 4 Noroeste 12 Oeste 0 -- -- 95
2019-04-03 05:00:00 5.9 8 Noroeste 12 Noroeste 0 -- -- 95
2019-04-03 04:00:00 6.9 5 Oeste 10 Noroeste 0 -- -- 93
2019-04-03 03:00:00 8 6 Oeste 14 Oeste 0 -- -- 88
2019-04-03 02:00:00 9.4 12 Noroeste 17 Noroeste 0 -- -- 86
2019-04-03 01:00:00 10.7 13 Noroeste 21 Noroeste 0 -- -- 83
2019-04-03 00:00:00 12.7 14 Noroeste 21 Noroeste 0 -- -- 73
2019-04-02 23:00:00 12 9 Noroeste 12 Noroeste 0 -- -- 73
2019-04-02 22:00:00 13.2 7 Noroeste 16 Noroeste 0 -- -- 72
2019-04-02 21:00:00 15.9 13 Noroeste 27 Oeste 0 -- -- 61
2019-04-02 20:00:00 17.6 15 Oeste 29 Oeste 0 -- -- 49
2019-04-02 19:00:00 20.4 18 Oeste 31 Oeste 0 -- -- 42
2019-04-02 18:00:00 20.5 22 Oeste 30 Oeste 0 -- -- 43
2019-04-02 17:00:00 18.9 11 Oeste 27 Oeste 0 -- -- 47
2019-04-02 16:00:00 19.9 15 Oeste 26 Oeste 0 -- -- 49
2019-04-02 15:00:00 18.3 4 Noroeste 21 Oeste 0 -- -- 51
2019-04-02 14:00:00 18.2 9 Oeste 18 Noroeste 0 -- -- 55
2019-04-02 13:00:00 17 6 Sudoeste 14 Sudoeste 0 -- -- 66
2019-04-02 12:00:00 14.3 2 Noroeste 12 Sudeste 0 -- -- 74
2019-04-02 11:00:00 12.2 7 Sudeste 12 Este 0 -- -- 95
2019-04-02 10:00:00 9.1 3 Este 6 Sudeste 0 -- -- 100
2019-04-02 09:00:00 5.2 3 Este 5 Sudeste 0 -- -- 100
2019-04-02 08:00:00 5 0 Calma 3 Sur 0 -- -- 100
2019-04-02 07:00:00 5.9 0 Calma 5 Sudeste 0.2 -- -- 100
2019-04-02 06:00:00 5.1 0 Calma 4 Sudoeste 0 -- -- 100
2019-04-02 05:00:00 5.3 0 Calma 4 Sudoeste 0 -- -- 100
2019-04-02 04:00:00 6.9 0 Calma 4 Nordeste 0 -- -- 100
2019-04-02 03:00:00 7 0 Calma 3 Oeste 0 -- -- 99
2019-04-02 02:00:00 7.8 0 Calma 7 Oeste 0 -- -- 100
2019-04-02 01:00:00 7.9 2 Norte 5 Este 0 -- -- 99
2019-04-02 00:00:00 8.8 3 Sudoeste 14 Sudoeste 0 -- -- 95
2019-04-01 23:00:00 10.2 3 Este 8 Sudeste 0 -- -- 94
2019-04-01 22:00:00 11 0 Calma 13 Sur 0 -- -- 84
2019-04-01 21:00:00 11.7 3 Nordeste 19 Sur 0 -- -- 81
2019-04-01 20:00:00 13.3 10 Sur 22 Sur 0 -- -- 75
2019-04-01 19:00:00 15 14 Sudeste 24 Sur 0 -- -- 71
2019-04-01 18:00:00 15.8 7 Norte 14 Nordeste 0 -- -- 67
2019-04-01 17:00:00 14.4 7 Nordeste 12 Nordeste 1 -- -- 81
2019-04-01 16:00:00 13.2 6 Norte 17 Nordeste 1.8 -- -- 89
2019-04-01 15:00:00 14.5 11 Nordeste 24 Este 0 -- -- 78
2019-04-01 14:00:00 16 5 Nordeste 11 Nordeste 0 -- -- 71
2019-04-01 13:00:00 16.1 6 Sudeste 18 Sudeste 0 -- -- 71
2019-04-01 12:00:00 12.9 12 Sudeste 17 Sudeste 0 -- -- 93
2019-04-01 11:00:00 11.4 13 Sudeste 18 Este 0 -- -- 95
2019-04-01 10:00:00 10.8 8 Sudeste 14 Sudeste 0.6 -- -- 97
2019-04-01 09:00:00 10.3 5 Sudeste 12 Sudeste 0.8 -- -- 97
2019-04-01 08:00:00 10.3 8 Sur 12 Sur 0 -- -- 94
2019-04-01 07:00:00 10.4 3 Sudeste 8 Sur 0.2 -- -- 94
2019-04-01 06:00:00 10.5 6 Sur 9 Sudeste 0.2 -- -- 94
2019-04-01 05:00:00 10.3 6 Sudeste 9 Sudeste 0 -- -- 93
2019-04-01 04:00:00 9.8 0 Calma 3 Norte 0 -- -- 94
2019-04-01 03:00:00 9.6 0 Calma 3 Norte 0 -- -- 93
2019-04-01 02:00:00 9.7 0 Calma 5 Este 0 -- -- 92
2019-04-01 01:00:00 10.4 3 Este 9 Nordeste 0 -- -- 90
2019-04-01 00:00:00 11 2 Sur 6 Este 0 -- -- 90
2019-03-31 23:00:00 11.8 3 Noroeste 24 Sudoeste 0 -- -- 85
2019-03-31 22:00:00 12.6 22 Sudoeste 27 Sudoeste 0 -- -- 80
2019-03-31 21:00:00 13.6 14 Sur 33 Sur 0 -- -- 70
2019-03-31 20:00:00 17.2 13 Este 22 Este 0 -- -- 50
2019-03-31 19:00:00 18.6 17 Este 30 Este 0 -- -- 46
2019-03-31 18:00:00 19.1 14 Este 33 Este 0 -- -- 50
2019-03-31 17:00:00 18.4 14 Nordeste 22 Nordeste 0 -- -- 53
2019-03-31 16:00:00 16.6 13 Norte 23 Norte 0 -- -- 67
2019-03-31 15:00:00 18 15 Norte 22 Norte 0 -- -- 61
2019-03-31 14:00:00 17.4 13 Oeste 23 Oeste 0 -- -- 62
2019-03-31 13:00:00 18.3 10 Sudeste 17 Sudeste 0 -- -- 56
2019-03-31 12:00:00 17.9 8 Sudeste 19 Sur 0 -- -- 55
2019-03-31 11:00:00 15.1 4 Sur 10 Sudoeste 0 -- -- 62
2019-03-31 10:00:00 13.9 2 Sudeste 6 Sur 0 -- -- 67
2019-03-31 09:00:00 8.7 0 Calma 5 Norte 0 -- -- 86
2019-03-31 08:00:00 8.4 3 Norte 5 Norte 0 -- -- 84
2019-03-31 07:00:00 9.7 3 Norte 9 Noroeste 0 -- -- 79
2019-03-31 06:00:00 10.9 6 Noroeste 11 Noroeste 0 -- -- 75
2019-03-31 05:00:00 10.5 2 Oeste 9 Norte 0 -- -- 77
2019-03-31 03:00:00 12.2 5 Nordeste 17 Este 0 -- -- 73
2019-03-31 01:00:00 12.6 11 Oeste 15 Oeste 0 -- -- 70
2019-03-31 00:00:00 12.9 5 Norte 13 Sur 0 -- -- 68
2019-03-30 23:00:00 13.6 5 Sur 18 Sudoeste 0 -- -- 64
2019-03-30 22:00:00 14.9 17 Sudoeste 33 Sudoeste 0 -- -- 56
2019-03-30 21:00:00 15.5 9 Nordeste 16 Este 0 -- -- 41
2019-03-30 20:00:00 15.6 9 Nordeste 14 Este 0 -- -- 42
2019-03-30 19:00:00 18.9 10 Este 24 Sudeste 0 -- -- 36
2019-03-30 18:00:00 20.7 14 Sudeste 30 Sudeste 0 -- -- 32
2019-03-30 17:00:00 21.2 14 Sudeste 27 Sudeste 0 -- -- 32
2019-03-30 16:00:00 20.1 8 Sur 32 Sudeste 0 -- -- 36
2019-03-30 15:00:00 20.5 15 Este 38 Este 0 -- -- 35
2019-03-30 14:00:00 20.1 15 Este 28 Este 0 -- -- 38
2019-03-30 13:00:00 18.5 10 Este 26 Sudeste 0 -- -- 43
2019-03-30 12:00:00 17.7 13 Este 25 Este 0 -- -- 44
2019-03-30 11:00:00 16.9 11 Sudeste 24 Sudeste 0 -- -- 49
2019-03-30 10:00:00 15.1 14 Sudeste 26 Este 0 -- -- 56
2019-03-30 09:00:00 12.6 17 Sudeste 24 Sudeste 0 -- -- 65
2019-03-30 08:00:00 8.3 8 Sur 13 Sudeste 0 -- -- 76
2019-03-30 07:00:00 8.2 10 Sudeste 17 Sudeste 0 -- -- 69
2019-03-30 06:00:00 8.8 7 Sudeste 12 Sudeste 0 -- -- 68
2019-03-30 05:00:00 8.9 6 Sudeste 9 Sudeste 0 -- -- 62
2019-03-30 04:00:00 8.3 5 Sudeste 10 Sudeste 0 -- -- 53
2019-03-30 03:00:00 7.7 7 Sudeste 9 Sudeste 0 -- -- 47
2019-03-30 02:00:00 8.3 4 Sudeste 12 Sudeste 0 -- -- 44
2019-03-30 01:00:00 8.7 9 Sudeste 11 Sudeste 0 -- -- 42
2019-03-30 00:00:00 8.8 2 Sur 4 Sur 0 -- -- 40
2019-03-29 23:00:00 9.9 4 Sur 6 Sur 0 -- -- 41
2019-03-29 22:00:00 12.8 3 Sudeste 15 Este 0 -- -- 30
2019-03-29 21:00:00 13.5 11 Este 15 Este 0 -- -- 30
2019-03-29 20:00:00 13.9 9 Este 13 Este 0 -- -- 33
2019-03-29 19:00:00 18 10 Este 14 Este 0 -- -- 30
2019-03-29 18:00:00 19.3 12 Sudeste 19 Sudeste 0 -- -- 22
2019-03-29 17:00:00 19.9 11 Sudeste 22 Este 0 -- -- 23
2019-03-29 16:00:00 20.1 13 Sudeste 29 Sudeste 0 -- -- 25
2019-03-29 15:00:00 19.5 14 Este 28 Este 0 -- -- 24
2019-03-29 14:00:00 19.1 10 Sur 31 Este 0 -- -- 26
2019-03-29 13:00:00 17.8 13 Sudeste 27 Sudeste 0 -- -- 26
2019-03-29 12:00:00 16.7 21 Sudeste 30 Este 0 -- -- 27
2019-03-29 11:00:00 16 15 Sudeste 30 Sudeste 0 -- -- 33
2019-03-29 10:00:00 14 19 Sudeste 29 Sudeste 0 -- -- 39
2019-03-29 09:00:00 11.4 14 Sudeste 22 Sudeste 0 -- -- 49
2019-03-29 08:00:00 7.6 15 Sudeste 22 Sudeste 0 -- -- 57
2019-03-29 07:00:00 5.6 13 Sudeste 17 Sudeste 0 -- -- 60
2019-03-29 06:00:00 7.2 14 Sudeste 16 Sudeste 0 -- -- 56
2019-03-29 05:00:00 7.1 10 Sudeste 17 Sudeste 0 -- -- 52
2019-03-29 04:00:00 7.2 10 Sudeste 18 Sudeste 0 -- -- 53
2019-03-29 03:00:00 7.8 12 Sudeste 18 Sudeste 0 -- -- 51
2019-03-29 02:00:00 8 7 Sur 9 Sur 0 -- -- 45
2019-03-29 01:00:00 7.2 3 Sur 8 Nordeste 0 -- -- 56
2019-03-29 00:00:00 9.3 4 Sudeste 13 Norte 0 -- -- 42
2019-03-28 23:00:00 10.4 3 Oeste 8 Noroeste 0 -- -- 41
2019-03-28 22:00:00 10.3 2 Norte 4 Norte 0 -- -- 38
2019-03-28 21:00:00 11.1 0 Calma 2 Sudoeste 0 -- -- 38
2019-03-28 20:00:00 14.3 0 Calma 15 Sudeste 0 -- -- 32
2019-03-28 19:00:00 18.6 13 Sur 28 Sudeste 0 -- -- 22
2019-03-28 18:00:00 20 21 Sudeste 41 Sudeste 0 -- -- 20
2019-03-28 17:00:00 20.4 25 Sudeste 40 Este 0 -- -- 18
2019-03-28 16:00:00 20.8 24 Este 46 Este 0 -- -- 18
2019-03-28 15:00:00 20.3 24 Sudeste 44 Sudeste 0 -- -- 20
2019-03-28 14:00:00 19.7 22 Sudeste 36 Sudeste 0 -- -- 23
2019-03-28 13:00:00 18.8 20 Sudeste 33 Este 0 -- -- 23
2019-03-28 12:00:00 17.6 18 Sudeste 32 Sudeste 0 -- -- 31
2019-03-28 11:00:00 15.9 21 Sudeste 31 Sudeste 0 -- -- 34
2019-03-28 10:00:00 14.2 15 Sudeste 21 Este 0 -- -- 52
2019-03-28 09:00:00 11 13 Sudeste 19 Sudeste 0 -- -- 55
2019-03-28 08:00:00 4.5 5 Sudeste 10 Sudeste 0 -- -- 67
2019-03-28 07:00:00 4.3 0 Calma 6 Este 0 -- -- 63
2019-03-28 06:00:00 4 2 Este 6 Sudeste 0 -- -- 62
2019-03-28 05:00:00 4 0 Calma 10 Este 0 -- -- 66
2019-03-28 04:00:00 7.6 6 Sur 18 Sur 0 -- -- 50
2019-03-28 03:00:00 7.2 5 Sur 9 Sudeste 0 -- -- 51
2019-03-28 02:00:00 7 5 Sur 6 Sur 0 -- -- 51
2019-03-28 01:00:00 7.8 2 Sudeste 4 Este 0 -- -- 49
2019-03-28 00:00:00 7.9 0 Calma 7 Sudeste 0 -- -- 52
2019-03-27 23:00:00 11.1 0 Calma 19 Este 0 -- -- 43
2019-03-27 22:00:00 13.9 14 Nordeste 22 Nordeste 0 -- -- 33
2019-03-27 21:00:00 14.7 12 Nordeste 19 Nordeste 0 -- -- 33
2019-03-27 20:00:00 15.6 13 Nordeste 23 Nordeste 0 -- -- 32
2019-03-27 19:00:00 18.5 16 Nordeste 26 Nordeste 0 -- -- 29
2019-03-27 18:00:00 19.8 13 Nordeste 30 Este 0 -- -- 29
2019-03-27 17:00:00 20.3 15 Este 35 Sudeste 0 -- -- 28
2019-03-27 16:00:00 20.5 18 Sudeste 33 Este 0 -- -- 28
2019-03-27 15:00:00 19.7 19 Este 37 Sudeste 0 -- -- 28
2019-03-27 14:00:00 18.8 20 Sudeste 38 Sudeste 0 -- -- 27
2019-03-27 13:00:00 18.3 23 Sudeste 36 Sudeste 0 -- -- 29
2019-03-27 12:00:00 17.2 20 Este 31 Este 0 -- -- 33
2019-03-27 11:00:00 15.5 19 Este 31 Este 0 -- -- 39
2019-03-27 10:00:00 14.1 23 Este 36 Sudeste 0 -- -- 40
2019-03-27 09:00:00 12.7 19 Sudeste 29 Sudeste 0 -- -- 45
2019-03-27 08:00:00 10.7 17 Sudeste 33 Este 0 -- -- 48
2019-03-27 07:00:00 10.5 18 Este 28 Sudeste 0 -- -- 47
2019-03-27 06:00:00 11.5 15 Este 35 Sudeste 0 -- -- 45
2019-03-27 05:00:00 13 20 Sudeste 33 Este 0 -- -- 40
2019-03-27 04:00:00 13.9 24 Sudeste 36 Sudeste 0 -- -- 40
2019-03-27 03:00:00 13.9 22 Sudeste 37 Este 0 -- -- 42
2019-03-27 02:00:00 15 24 Sudeste 38 Sudeste 0 -- -- 45
2019-03-27 01:00:00 16 25 Sudeste 45 Este 0 -- -- 42
2019-03-27 00:00:00 16.8 28 Este 42 Este 0 -- -- 37
2019-03-26 23:00:00 18 28 Este 41 Este 0 -- -- 32
2019-03-26 22:00:00 17.8 20 Este 28 Este 0 -- -- 32
2019-03-26 21:00:00 18.4 19 Este 30 Este 0 -- -- 33
2019-03-26 20:00:00 19.2 20 Este 31 Este 0 -- -- 32
2019-03-26 19:00:00 20.7 20 Nordeste 36 Este 0 -- -- 31
2019-03-26 18:00:00 21.9 19 Este 36 Nordeste 0 -- -- 28
2019-03-26 17:00:00 22.7 22 Nordeste 39 Este 0 -- -- 28
2019-03-26 16:00:00 23.8 24 Este 41 Sudeste 0 -- -- 27
2019-03-26 15:00:00 23.4 27 Sudeste 45 Sudeste 0 -- -- 26
2019-03-26 14:00:00 22.8 28 Este 40 Sudeste 0 -- -- 29
2019-03-26 13:00:00 21.1 22 Este 38 Este 0 -- -- 32
2019-03-26 12:00:00 19.4 24 Este 40 Este 0 -- -- 32
2019-03-26 11:00:00 16.7 22 Nordeste 33 Nordeste 0 -- -- 36
2019-03-26 10:00:00 14.5 18 Nordeste 34 Nordeste 0 -- -- 37
2019-03-26 09:00:00 13.2 11 Nordeste 23 Este 0 -- -- 35
2019-03-26 08:00:00 11.8 8 Nordeste 27 Nordeste 0 -- -- 33
2019-03-26 07:00:00 11.8 17 Nordeste 33 Nordeste 0 -- -- 32
2019-03-26 06:00:00 12.4 21 Nordeste 32 Nordeste 0 -- -- 32
2019-03-26 05:00:00 10.6 14 Nordeste 23 Nordeste 0 -- -- 47
2019-03-26 04:00:00 11.4 7 Nordeste 25 Nordeste 0 -- -- 46
2019-03-26 03:00:00 13.6 19 Nordeste 29 Nordeste 0 -- -- 40
2019-03-26 02:00:00 11.4 13 Nordeste 19 Nordeste 0 -- -- 49
2019-03-26 01:00:00 11.9 15 Norte 24 Norte 0 -- -- 48
2019-03-26 00:00:00 13.6 17 Nordeste 27 Nordeste 0 -- -- 45
2019-03-25 23:00:00 15.1 18 Nordeste 24 Nordeste 0 -- -- 42
2019-03-25 22:00:00 16.2 13 Nordeste 20 Nordeste 0 -- -- 39
2019-03-25 21:00:00 18 14 Nordeste 23 Este 0 -- -- 34
2019-03-25 20:00:00 18.9 13 Nordeste 32 Nordeste 0 -- -- 31
2019-03-25 19:00:00 21 20 Nordeste 33 Nordeste 0 -- -- 23
2019-03-25 18:00:00 22.2 21 Nordeste 33 Este 0 -- -- 27
2019-03-25 17:00:00 23 21 Este 33 Sudeste 0 -- -- 29
2019-03-25 16:00:00 23.1 15 Este 38 Sudeste 0 -- -- 29
2019-03-25 15:00:00 22.9 19 Sudeste 40 Sudeste 0 -- -- 26
2019-03-25 14:00:00 22.2 25 Sudeste 37 Sudeste 0 -- -- 26
2019-03-25 13:00:00 21.7 22 Sudeste 37 Este 0 -- -- 30
2019-03-25 12:00:00 20.3 17 Sudeste 33 Este 0 -- -- 37
2019-03-25 11:00:00 19.4 19 Este 29 Este 0 -- -- 38
2019-03-25 10:00:00 17.9 12 Este 23 Este 0 -- -- 49
2019-03-25 09:00:00 14.3 3 Este 12 Este 0 -- -- 59
2019-03-25 08:00:00 8.9 5 Este 10 Este 0 -- -- 74
2019-03-25 07:00:00 6.8 6 Noroeste 9 Noroeste 0 -- -- 82
2019-03-25 06:00:00 6.6 0 Calma 6 Sur 0 -- -- 83
2019-03-25 05:00:00 7.1 0 Calma 2 Norte 0 -- -- 81
2019-03-25 04:00:00 8.1 0 Calma 4 Sudoeste 0 -- -- 77
2019-03-25 03:00:00 8.4 0 Calma 2 Noroeste 0 -- -- 74
2019-03-25 02:00:00 7.8 4 Sur 7 Sudeste 0 -- -- 77
2019-03-25 01:00:00 9.5 2 Sur 4 Sur 0 -- -- 70
2019-03-25 00:00:00 10.2 0 Calma 2 Oeste 0 -- -- 66